createdAt,value
2017-08-30T00:01:50.255Z,19.06
2017-08-30T00:04:17.712Z,19.09
2017-08-30T00:06:45.232Z,19.05
2017-08-30T00:09:12.683Z,19.09
2017-08-30T00:11:40.159Z,19.28
2017-08-30T00:14:07.656Z,19.11
2017-08-30T00:16:35.111Z,18.94
2017-08-30T00:19:02.610Z,19.01
2017-08-30T00:21:30.072Z,18.95
2017-08-30T00:23:57.556Z,18.90
2017-08-30T00:26:28.492Z,18.62
2017-08-30T00:28:55.979Z,18.73
2017-08-30T00:31:23.436Z,18.62
2017-08-30T00:33:50.922Z,18.63
2017-08-30T00:36:18.410Z,18.62
2017-08-30T00:38:45.887Z,18.94
2017-08-30T00:41:13.355Z,18.95
2017-08-30T00:43:40.831Z,18.86
2017-08-30T00:46:08.283Z,18.80
2017-08-30T00:48:35.755Z,18.90
2017-08-30T00:51:03.216Z,18.80
2017-08-30T00:53:30.793Z,18.85
2017-08-30T00:55:58.270Z,18.75
2017-08-30T00:58:25.773Z,18.69
2017-08-30T01:00:53.249Z,18.81
2017-08-30T01:03:20.736Z,18.77
2017-08-30T01:05:48.201Z,18.76
2017-08-30T01:08:15.684Z,18.70
2017-08-30T01:10:43.140Z,18.64
2017-08-30T01:13:10.655Z,18.47
2017-08-30T01:15:38.116Z,18.42
2017-08-30T01:18:05.595Z,18.29
2017-08-30T01:20:33.052Z,18.38
2017-08-30T01:23:00.532Z,18.36
2017-08-30T01:25:27.990Z,18.52
2017-08-30T01:27:55.475Z,18.38
2017-08-30T01:30:22.927Z,18.46
2017-08-30T01:32:50.413Z,18.43
2017-08-30T01:35:17.883Z,18.45
2017-08-30T01:37:45.368Z,18.53
2017-08-30T01:40:12.830Z,18.61
2017-08-30T01:42:40.289Z,18.35
2017-08-30T01:45:07.784Z,18.25
2017-08-30T01:47:35.411Z,18.11
2017-08-30T01:50:02.899Z,18.14
2017-08-30T01:52:30.356Z,18.23
2017-08-30T01:54:57.863Z,18.10
2017-08-30T01:57:25.320Z,18.16
2017-08-30T01:59:52.792Z,18.08
2017-08-30T02:02:20.243Z,17.98
2017-08-30T02:04:47.724Z,17.98
2017-08-30T02:07:15.176Z,17.76
2017-08-30T02:09:42.666Z,17.74
2017-08-30T02:12:10.134Z,18.02
2017-08-30T02:14:37.639Z,18.32
2017-08-30T02:17:05.100Z,18.08
2017-08-30T02:19:32.584Z,17.99
2017-08-30T02:22:00.058Z,17.73
2017-08-30T02:24:27.545Z,17.86
2017-08-30T02:26:55.004Z,17.52
2017-08-30T02:29:22.488Z,17.55
2017-08-30T02:31:49.953Z,17.71
2017-08-30T02:34:17.438Z,17.53
2017-08-30T02:36:44.912Z,17.50
2017-08-30T02:39:12.400Z,17.49
2017-08-30T02:41:39.852Z,17.61
2017-08-30T02:44:07.360Z,17.72
2017-08-30T02:46:34.833Z,17.82
2017-08-30T02:49:02.302Z,17.74
2017-08-30T02:51:29.793Z,17.78
2017-08-30T02:53:57.247Z,17.89
2017-08-30T02:56:24.736Z,17.73
2017-08-30T02:58:52.195Z,17.85
2017-08-30T03:01:19.679Z,17.95
2017-08-30T03:03:47.141Z,17.94
2017-08-30T03:06:14.625Z,17.73
2017-08-30T03:08:42.075Z,17.71
2017-08-30T03:11:09.560Z,17.64
2017-08-30T03:13:37.011Z,17.56
2017-08-30T03:16:04.459Z,17.51
2017-08-30T03:18:31.947Z,17.44
2017-08-30T03:20:59.403Z,17.41
2017-08-30T03:23:26.898Z,17.48
2017-08-30T03:25:54.378Z,17.40
2017-08-30T03:28:21.856Z,17.53
2017-08-30T03:30:49.323Z,17.54
2017-08-30T03:33:16.811Z,17.57
2017-08-30T03:35:44.271Z,17.66
2017-08-30T03:38:11.738Z,17.62
2017-08-30T03:40:39.225Z,17.69
2017-08-30T03:43:06.697Z,17.52
2017-08-30T03:45:34.204Z,17.57
2017-08-30T03:48:01.659Z,17.55
2017-08-30T03:50:29.135Z,17.63
2017-08-30T03:52:56.606Z,17.57
2017-08-30T03:55:24.087Z,17.45
2017-08-30T03:57:51.544Z,17.47
2017-08-30T04:00:19.027Z,17.45
2017-08-30T04:02:46.504Z,17.60
2017-08-30T04:05:14.016Z,17.73
2017-08-30T04:07:41.483Z,17.56
2017-08-30T04:10:08.957Z,17.57
2017-08-30T04:12:39.444Z,17.57
2017-08-30T04:15:06.930Z,17.42
2017-08-30T04:17:34.427Z,17.30
2017-08-30T04:20:01.889Z,17.43
2017-08-30T04:22:29.385Z,17.34
2017-08-30T04:24:56.848Z,17.25
2017-08-30T04:27:24.425Z,17.16
2017-08-30T04:29:51.880Z,17.35
2017-08-30T04:32:19.366Z,17.27
2017-08-30T04:34:46.819Z,17.14
2017-08-30T04:37:14.305Z,17.18
2017-08-30T04:39:41.777Z,17.39
2017-08-30T04:42:09.252Z,17.46
2017-08-30T04:44:36.710Z,17.38
2017-08-30T04:47:04.187Z,17.37
2017-08-30T04:49:31.643Z,17.23
2017-08-30T04:51:59.182Z,17.31
2017-08-30T04:54:26.636Z,17.33
2017-08-30T04:56:54.136Z,16.93
2017-08-30T04:59:21.597Z,16.92
2017-08-30T05:01:49.075Z,17.07
2017-08-30T05:04:16.528Z,17.00
2017-08-30T05:06:44.004Z,17.27
2017-08-30T05:09:11.463Z,17.48
2017-08-30T05:11:38.935Z,17.61
2017-08-30T05:14:06.396Z,17.70
2017-08-30T05:16:33.886Z,17.85
2017-08-30T05:19:01.344Z,17.93
2017-08-30T05:21:28.820Z,17.97
2017-08-30T05:23:56.280Z,18.01
2017-08-30T05:26:23.770Z,18.23
2017-08-30T05:28:51.220Z,18.38
2017-08-30T05:31:18.672Z,18.40
2017-08-30T05:33:46.147Z,18.58
2017-08-30T05:36:13.603Z,18.57
2017-08-30T05:38:41.352Z,18.58
2017-08-30T05:41:08.804Z,18.61
2017-08-30T05:43:36.282Z,18.69
2017-08-30T05:46:03.732Z,18.77
2017-08-30T05:48:31.225Z,18.88
2017-08-30T05:50:58.679Z,18.79
2017-08-30T05:53:26.173Z,18.91
2017-08-30T05:55:53.628Z,18.87
2017-08-30T05:58:21.105Z,18.98
2017-08-30T06:00:48.562Z,19.17
2017-08-30T06:03:16.035Z,18.98
2017-08-30T06:05:43.495Z,19.08
2017-08-30T06:08:10.971Z,19.17
2017-08-30T06:10:38.438Z,19.18
2017-08-30T06:13:05.920Z,19.20
2017-08-30T06:15:33.375Z,19.30
2017-08-30T06:18:00.855Z,19.50
2017-08-30T06:20:28.322Z,19.60
2017-08-30T06:22:55.812Z,19.87
2017-08-30T06:25:23.281Z,19.64
2017-08-30T06:27:50.768Z,19.94
2017-08-30T06:30:18.219Z,19.63
2017-08-30T06:32:45.703Z,19.76
2017-08-30T06:35:13.160Z,20.05
2017-08-30T06:37:40.612Z,20.23
2017-08-30T06:40:08.133Z,20.17
2017-08-30T06:42:35.606Z,20.10
2017-08-30T06:45:03.100Z,20.40
2017-08-30T06:47:30.583Z,20.52
2017-08-30T06:49:58.060Z,20.47
2017-08-30T06:52:25.517Z,20.39
2017-08-30T06:54:52.996Z,20.85
2017-08-30T06:57:20.447Z,20.83
2017-08-30T06:59:47.920Z,21.07
2017-08-30T07:02:15.390Z,20.88
2017-08-30T07:04:42.860Z,20.98
2017-08-30T07:07:10.339Z,21.25
2017-08-30T07:09:37.801Z,20.75
2017-08-30T07:12:05.294Z,20.76
2017-08-30T07:14:32.764Z,21.41
2017-08-30T07:17:00.238Z,21.22
2017-08-30T07:19:27.696Z,20.89
2017-08-30T07:21:55.180Z,20.92
2017-08-30T07:24:22.677Z,21.11
2017-08-30T07:26:50.151Z,21.15
2017-08-30T07:29:17.600Z,21.27
2017-08-30T07:31:45.067Z,21.20
2017-08-30T07:34:12.551Z,21.12
2017-08-30T07:36:40.022Z,21.32
2017-08-30T07:39:07.499Z,21.59
2017-08-30T07:41:34.978Z,21.57
2017-08-30T07:44:02.477Z,21.69
2017-08-30T07:46:29.936Z,21.81
2017-08-30T07:48:57.440Z,22.04
2017-08-30T07:51:24.899Z,22.17
2017-08-30T07:53:52.412Z,22.36
2017-08-30T07:56:19.863Z,22.32
2017-08-30T07:58:47.345Z,22.44
2017-08-30T08:01:14.798Z,22.55
2017-08-30T08:03:42.275Z,22.82
2017-08-30T08:06:09.798Z,23.24
2017-08-30T08:08:37.292Z,23.24
2017-08-30T08:11:04.752Z,23.70
2017-08-30T08:13:32.244Z,23.44
2017-08-30T08:15:59.754Z,23.74
2017-08-30T08:18:27.236Z,23.37
2017-08-30T08:20:54.702Z,23.82
2017-08-30T08:23:22.188Z,24.10
2017-08-30T08:25:49.639Z,24.13
2017-08-30T08:28:17.127Z,24.24
2017-08-30T08:30:44.593Z,24.30
2017-08-30T08:33:12.073Z,24.68
2017-08-30T08:35:39.552Z,24.52
2017-08-30T08:38:07.014Z,24.70
2017-08-30T08:40:34.499Z,24.79
2017-08-30T08:43:01.976Z,24.97
2017-08-30T08:45:29.452Z,25.41
2017-08-30T08:47:56.929Z,25.64
2017-08-30T08:50:24.403Z,25.30
2017-08-30T08:52:51.874Z,25.47
2017-08-30T08:55:19.361Z,25.53
2017-08-30T08:57:46.833Z,25.41
2017-08-30T09:00:14.313Z,25.67
2017-08-30T09:02:41.772Z,25.36
2017-08-30T09:05:09.248Z,25.51
2017-08-30T09:07:36.708Z,25.58
2017-08-30T09:10:04.216Z,25.74
2017-08-30T09:12:31.694Z,25.66
2017-08-30T09:14:59.187Z,25.81
2017-08-30T09:17:26.674Z,25.96
2017-08-30T09:19:54.157Z,26.09
2017-08-30T09:22:21.628Z,26.11
2017-08-30T09:24:49.097Z,26.05
2017-08-30T09:27:16.576Z,26.47
2017-08-30T09:29:44.031Z,26.43
2017-08-30T09:32:11.517Z,26.73
2017-08-30T09:34:38.979Z,26.92
2017-08-30T09:37:06.460Z,26.92
2017-08-30T09:39:33.920Z,27.22
2017-08-30T09:42:01.403Z,27.14
2017-08-30T09:44:28.855Z,27.32
2017-08-30T09:46:56.336Z,26.93
2017-08-30T09:49:23.801Z,26.71
2017-08-30T09:51:51.279Z,26.79
2017-08-30T09:54:18.739Z,27.20
2017-08-30T09:56:46.216Z,27.10
2017-08-30T09:59:13.686Z,27.28
2017-08-30T10:01:41.174Z,27.29
2017-08-30T10:04:08.891Z,27.58
2017-08-30T10:06:36.349Z,27.68
2017-08-30T10:09:03.831Z,27.72
2017-08-30T10:11:31.288Z,27.91
2017-08-30T10:13:58.780Z,28.14
2017-08-30T10:16:26.245Z,28.18
2017-08-30T10:18:53.719Z,28.04
2017-08-30T10:21:21.179Z,28.23
2017-08-30T10:23:48.652Z,28.55
2017-08-30T10:26:16.108Z,28.77
2017-08-30T10:28:43.587Z,28.65
2017-08-30T10:31:11.053Z,28.99
2017-08-30T10:33:38.550Z,29.07
2017-08-30T10:36:06.004Z,29.02
2017-08-30T10:38:33.489Z,28.86
2017-08-30T10:41:00.958Z,29.04
2017-08-30T10:43:28.428Z,28.90
2017-08-30T10:45:55.888Z,29.11
2017-08-30T10:48:23.360Z,29.48
2017-08-30T10:50:50.831Z,29.49
2017-08-30T10:53:18.297Z,29.71
2017-08-30T10:55:45.790Z,29.56
2017-08-30T10:58:13.248Z,29.68
2017-08-30T11:00:40.822Z,29.74
2017-08-30T11:03:08.294Z,29.81
2017-08-30T11:05:35.774Z,29.92
2017-08-30T11:08:03.250Z,29.82
2017-08-30T11:10:30.723Z,29.78
2017-08-30T11:12:58.180Z,30.17
2017-08-30T11:15:25.655Z,30.24
2017-08-30T11:17:53.122Z,30.07
2017-08-30T11:20:20.599Z,30.08
2017-08-30T11:22:48.059Z,30.16
2017-08-30T11:25:15.542Z,30.37
2017-08-30T11:27:43.000Z,30.18
2017-08-30T11:30:10.479Z,30.18
2017-08-30T11:32:37.936Z,30.24
2017-08-30T11:35:05.411Z,30.12
2017-08-30T11:37:32.881Z,29.70
2017-08-30T11:40:00.381Z,29.76
2017-08-30T11:42:27.853Z,29.77
2017-08-30T11:44:55.326Z,29.75
2017-08-30T11:47:22.804Z,29.62
2017-08-30T11:49:50.308Z,29.62
2017-08-30T11:52:17.799Z,29.57
2017-08-30T11:54:45.261Z,29.35
2017-08-30T11:57:12.752Z,29.27
2017-08-30T11:59:40.222Z,29.22
2017-08-30T12:02:07.737Z,29.23
2017-08-30T12:04:35.206Z,29.00
2017-08-30T12:07:02.683Z,29.04
2017-08-30T12:09:30.145Z,29.25
2017-08-30T12:11:57.631Z,29.47
2017-08-30T12:14:25.097Z,29.49
2017-08-30T12:16:52.617Z,29.52
2017-08-30T12:19:20.064Z,29.42
2017-08-30T12:21:47.549Z,29.46
2017-08-30T12:24:15.014Z,29.34
2017-08-30T12:26:42.491Z,29.24
2017-08-30T12:29:09.940Z,29.22
2017-08-30T12:31:37.408Z,29.35
2017-08-30T12:34:04.864Z,29.25
2017-08-30T12:36:37.903Z,29.40
2017-08-30T12:39:10.927Z,29.31
2017-08-30T12:41:38.417Z,29.32
2017-08-30T12:44:05.871Z,29.25
2017-08-30T12:46:33.348Z,29.18
2017-08-30T12:49:00.838Z,29.02
2017-08-30T12:51:28.296Z,28.89
2017-08-30T12:53:55.778Z,28.88
2017-08-30T12:56:23.244Z,28.95
2017-08-30T12:58:50.730Z,28.87
2017-08-30T13:01:18.187Z,28.75
2017-08-30T13:03:45.676Z,28.97
2017-08-30T13:06:13.136Z,29.11
2017-08-30T13:08:40.611Z,29.03
2017-08-30T13:11:08.052Z,28.93
2017-08-30T13:13:35.540Z,28.92
2017-08-30T13:16:03.021Z,29.21
2017-08-30T13:18:30.472Z,29.32
2017-08-30T13:20:57.943Z,29.39
2017-08-30T13:23:25.391Z,29.41
2017-08-30T13:25:52.859Z,29.17
2017-08-30T13:28:20.312Z,28.99
2017-08-30T13:30:47.811Z,29.16
2017-08-30T13:33:15.260Z,29.27
2017-08-30T13:35:42.754Z,29.24
2017-08-30T13:38:10.208Z,29.52
2017-08-30T13:40:37.693Z,29.25
2017-08-30T13:43:05.146Z,29.23
2017-08-30T13:45:32.620Z,29.36
2017-08-30T13:48:00.063Z,29.51
2017-08-30T13:50:27.558Z,29.25
2017-08-30T13:52:55.011Z,29.56
2017-08-30T13:55:22.488Z,29.06
2017-08-30T13:57:49.944Z,29.05
2017-08-30T14:00:17.430Z,29.03
2017-08-30T14:02:44.897Z,29.22
2017-08-30T14:05:12.383Z,29.29
2017-08-30T14:07:39.850Z,28.98
2017-08-30T14:10:07.304Z,29.08
2017-08-30T14:12:34.784Z,28.80
2017-08-30T14:15:02.240Z,28.94
2017-08-30T14:17:29.720Z,29.18
2017-08-30T14:19:57.193Z,29.08
2017-08-30T14:22:24.672Z,29.07
2017-08-30T14:24:52.136Z,29.09
2017-08-30T14:27:19.612Z,29.25
2017-08-30T14:29:47.064Z,29.47
2017-08-30T14:32:14.546Z,29.19
2017-08-30T14:34:41.996Z,29.25
2017-08-30T14:37:09.480Z,29.20
2017-08-30T14:39:36.933Z,29.41
2017-08-30T14:42:04.416Z,29.37
2017-08-30T14:44:31.868Z,29.20
2017-08-30T14:46:59.325Z,29.31
2017-08-30T14:49:26.803Z,29.48
2017-08-30T14:51:54.256Z,29.55
2017-08-30T14:54:21.734Z,29.54
2017-08-30T14:56:49.207Z,29.75
2017-08-30T14:59:16.690Z,29.29
2017-08-30T15:01:44.136Z,29.39
2017-08-30T15:04:11.608Z,29.25
2017-08-30T15:06:39.062Z,29.25
2017-08-30T15:09:06.570Z,29.19
2017-08-30T15:11:34.027Z,29.25
2017-08-30T15:14:01.526Z,29.10
2017-08-30T15:16:28.989Z,28.79
2017-08-30T15:18:56.466Z,28.72
2017-08-30T15:21:23.923Z,28.60
2017-08-30T15:23:51.399Z,28.67
2017-08-30T15:26:18.916Z,28.63
2017-08-30T15:28:46.380Z,28.66
2017-08-30T15:31:13.847Z,28.57
2017-08-30T15:33:41.299Z,28.63
2017-08-30T15:36:08.789Z,28.44
2017-08-30T15:38:36.252Z,28.39
2017-08-30T15:41:03.719Z,28.25
2017-08-30T15:43:31.177Z,28.21
2017-08-30T15:45:58.648Z,28.25
2017-08-30T15:48:26.100Z,28.16
2017-08-30T15:50:53.571Z,28.03
2017-08-30T15:53:21.016Z,27.85
2017-08-30T15:55:48.501Z,28.07
2017-08-30T15:58:15.962Z,27.92
2017-08-30T16:00:43.431Z,27.99
2017-08-30T16:03:10.888Z,27.97
2017-08-30T16:05:38.374Z,27.87
2017-08-30T16:08:05.828Z,27.83
2017-08-30T16:10:33.302Z,27.92
2017-08-30T16:13:00.770Z,28.04
2017-08-30T16:15:28.239Z,27.80
2017-08-30T16:17:55.684Z,27.70
2017-08-30T16:20:23.162Z,27.82
2017-08-30T16:22:50.622Z,27.92
2017-08-30T16:25:18.072Z,27.64
2017-08-30T16:27:45.549Z,27.64
2017-08-30T16:30:13.014Z,27.77
2017-08-30T16:32:40.483Z,27.61
2017-08-30T16:35:07.942Z,27.56
2017-08-30T16:37:35.419Z,27.43
2017-08-30T16:40:02.891Z,27.64
2017-08-30T16:42:30.364Z,27.44
2017-08-30T16:44:57.808Z,27.37
2017-08-30T16:47:25.494Z,27.30
2017-08-30T16:49:52.968Z,27.30
2017-08-30T16:52:20.476Z,27.36
2017-08-30T16:54:49.021Z,27.26
2017-08-30T16:57:17.252Z,27.22
2017-08-30T16:59:44.832Z,27.22
2017-08-30T17:02:12.370Z,27.30
2017-08-30T17:04:39.865Z,27.13
2017-08-30T17:07:07.382Z,27.10
2017-08-30T17:09:34.911Z,27.16
2017-08-30T17:12:02.417Z,27.19
2017-08-30T17:14:30.041Z,27.24
2017-08-30T17:16:57.601Z,27.21
2017-08-30T17:19:25.126Z,27.08
2017-08-30T17:21:52.617Z,27.07
2017-08-30T17:24:20.127Z,26.93
2017-08-30T17:26:47.633Z,26.96
2017-08-30T17:29:15.139Z,26.92
2017-08-30T17:31:42.637Z,26.86
2017-08-30T17:34:10.152Z,26.87
2017-08-30T17:36:37.646Z,26.83
2017-08-30T17:39:05.171Z,26.72
2017-08-30T17:41:32.676Z,26.67
2017-08-30T17:44:00.191Z,26.56
2017-08-30T17:46:27.683Z,26.69
2017-08-30T17:48:55.193Z,26.71
2017-08-30T17:51:22.660Z,26.79
2017-08-30T17:53:50.129Z,26.78
2017-08-30T17:56:17.604Z,26.72
2017-08-30T17:58:45.069Z,26.69
2017-08-30T18:01:12.554Z,26.52
2017-08-30T18:03:40.004Z,26.49
2017-08-30T18:06:07.483Z,26.29
2017-08-30T18:08:34.972Z,26.21
2017-08-30T18:11:02.457Z,26.13
2017-08-30T18:13:30.177Z,26.09
2017-08-30T18:15:57.649Z,26.04
2017-08-30T18:18:25.110Z,25.91
2017-08-30T18:20:52.583Z,25.64
2017-08-30T18:23:20.031Z,25.54
2017-08-30T18:25:48.391Z,25.63
2017-08-30T18:28:15.856Z,25.57
2017-08-30T18:30:43.332Z,25.37
2017-08-30T18:33:10.780Z,25.48
2017-08-30T18:35:38.252Z,25.45
2017-08-30T18:38:05.699Z,25.48
2017-08-30T18:40:33.275Z,25.32
2017-08-30T18:43:00.724Z,25.34
2017-08-30T18:45:28.208Z,25.45
2017-08-30T18:47:55.681Z,25.39
2017-08-30T18:50:23.187Z,25.41
2017-08-30T18:52:50.652Z,25.45
2017-08-30T18:55:18.179Z,25.35
2017-08-30T18:57:45.651Z,25.40
2017-08-30T19:00:13.423Z,25.39
2017-08-30T19:02:40.911Z,25.27
2017-08-30T19:05:08.372Z,25.34
2017-08-30T19:07:35.847Z,25.22
2017-08-30T19:10:03.300Z,25.16
2017-08-30T19:12:30.775Z,25.30
2017-08-30T19:14:58.240Z,25.29
2017-08-30T19:17:25.720Z,25.25
2017-08-30T19:19:53.565Z,25.30
2017-08-30T19:22:21.427Z,25.37
2017-08-30T19:24:48.891Z,25.27
2017-08-30T19:27:16.581Z,25.23
2017-08-30T19:29:44.252Z,25.29
2017-08-30T19:32:11.739Z,25.31
2017-08-30T19:34:39.210Z,25.16
2017-08-30T19:37:06.683Z,25.16
2017-08-30T19:39:35.077Z,25.22
2017-08-30T19:42:02.548Z,25.09
2017-08-30T19:44:30.013Z,25.38
2017-08-30T19:46:57.610Z,25.22
2017-08-30T19:49:25.060Z,24.94
2017-08-30T19:51:52.531Z,25.03
2017-08-30T19:54:19.980Z,24.96
2017-08-30T19:56:47.455Z,24.97
2017-08-30T19:59:14.900Z,24.90
2017-08-30T20:01:42.373Z,24.84
2017-08-30T20:04:09.849Z,24.88
2017-08-30T20:09:30.522Z,24.69
2017-08-30T20:20:37.041Z,24.60
2017-08-30T20:23:04.524Z,24.55
2017-08-30T20:25:31.985Z,24.60
2017-08-30T20:27:59.459Z,24.50
2017-08-30T20:30:26.918Z,24.63
2017-08-30T20:32:54.419Z,24.55
2017-08-30T20:35:21.925Z,24.66
2017-08-30T20:37:49.470Z,24.46
2017-08-30T20:40:16.983Z,24.47
2017-08-30T20:42:44.488Z,24.36
2017-08-30T20:45:11.999Z,24.36
2017-08-30T20:47:39.461Z,24.42
2017-08-30T20:50:06.926Z,24.32
2017-08-30T20:52:34.621Z,24.27
2017-08-30T20:55:02.240Z,24.25
2017-08-30T20:57:29.730Z,24.38
2017-08-30T20:59:57.253Z,24.35
2017-08-30T21:02:24.729Z,24.38
2017-08-30T21:04:52.233Z,24.23
2017-08-30T21:07:19.692Z,24.48
2017-08-30T21:09:47.191Z,24.52
2017-08-30T21:12:14.681Z,24.17
2017-08-30T21:14:42.204Z,24.36
2017-08-30T21:17:09.833Z,24.26
2017-08-30T21:19:37.337Z,24.33
2017-08-30T21:22:04.806Z,24.11
2017-08-30T21:24:32.288Z,24.13
2017-08-30T21:26:59.768Z,24.24
2017-08-30T21:29:27.284Z,24.13
2017-08-30T21:31:54.743Z,23.97
2017-08-30T21:34:22.235Z,23.76
2017-08-30T21:36:49.736Z,23.78
2017-08-30T21:39:17.228Z,23.79
2017-08-30T21:41:44.703Z,23.83
2017-08-30T21:44:12.156Z,23.70
2017-08-30T21:46:39.627Z,23.39
2017-08-30T21:49:07.080Z,23.44
2017-08-30T21:51:34.557Z,23.33
2017-08-30T21:54:02.012Z,23.34
2017-08-30T21:56:29.513Z,23.17
2017-08-30T21:58:56.965Z,23.16
2017-08-30T22:01:24.468Z,23.08
2017-08-30T22:03:51.929Z,23.20
2017-08-30T22:06:19.406Z,23.03
2017-08-30T22:08:46.869Z,23.16
2017-08-30T22:11:14.350Z,23.11
2017-08-30T22:13:41.841Z,23.03
2017-08-30T22:16:09.320Z,23.21
2017-08-30T22:18:36.788Z,23.12
2017-08-30T22:21:04.321Z,23.03
2017-08-30T22:23:31.779Z,23.03
2017-08-30T22:25:59.265Z,23.07
2017-08-30T22:28:26.715Z,23.04
2017-08-30T22:30:54.204Z,23.08
2017-08-30T22:33:21.660Z,22.98
2017-08-30T22:35:49.139Z,22.96
2017-08-30T22:38:16.628Z,22.98
2017-08-30T22:40:44.096Z,22.91
2017-08-30T22:43:11.565Z,22.91
2017-08-30T22:45:39.060Z,22.93
2017-08-30T22:48:06.529Z,22.91
2017-08-30T22:50:33.992Z,23.12
2017-08-30T22:53:01.475Z,22.87
2017-08-30T22:55:28.938Z,22.98
2017-08-30T22:57:56.420Z,22.87
2017-08-30T23:00:23.876Z,22.89
2017-08-30T23:02:51.355Z,22.65
2017-08-30T23:05:18.820Z,22.76
2017-08-30T23:07:46.283Z,22.76
2017-08-30T23:10:13.731Z,22.74
2017-08-30T23:12:41.220Z,22.76
2017-08-30T23:15:08.689Z,22.69
2017-08-30T23:17:36.168Z,22.82
2017-08-30T23:20:03.619Z,22.80
2017-08-30T23:22:31.101Z,22.73
2017-08-30T23:24:58.561Z,22.65
2017-08-30T23:27:26.040Z,22.70
2017-08-30T23:29:53.552Z,22.70
2017-08-30T23:32:21.049Z,22.74
2017-08-30T23:34:48.523Z,22.72
2017-08-30T23:37:16.025Z,22.80
2017-08-30T23:39:43.500Z,22.65
2017-08-30T23:42:11.031Z,22.50
2017-08-30T23:44:38.501Z,22.68
2017-08-30T23:47:05.993Z,22.56
2017-08-30T23:49:33.457Z,22.57
2017-08-30T23:52:00.912Z,22.62
2017-08-30T23:54:28.413Z,22.53
2017-08-30T23:56:55.868Z,22.49
2017-08-30T23:59:23.336Z,22.28
